Las Vegas, Nevada
Traffic Map
Current Weather Conditions
Las Vegas, Nevada
Few Clouds
Few Clouds
57°
Feels Like: 57°
Wind Chill: 57° Ceiling: Unl
Heat Index: 57° Visibility: 10mi
Dew Point: 24° Wind: 10mph
Humidity: 28% Direction: 210° (SSW)
Pressure: 29.76in Gusts: 0mph
Raw Report DataKLAS 010356Z 21009KT 10SM FEW085 14/M04 A2976 RMK AO2 SLP070 T01391044
Traffic Incident Summary
Active as of:
Severity:
Category:
InformationThere was an issue retrieving the traffic information for this location. Please try a different location or try again shortly.
Advertisements
Track Severe Weather on mobile